createdAt,value
2022-10-15T00:02:17.681Z,23.23
2022-10-15T00:04:45.911Z,21.33
2022-10-15T00:07:14.114Z,21.67
2022-10-15T00:09:43.789Z,21.97
2022-10-15T00:12:11.997Z,21.90
2022-10-15T00:14:40.314Z,21.70
2022-10-15T00:17:08.470Z,22.83
2022-10-15T00:19:36.620Z,21.20
2022-10-15T00:22:04.937Z,20.63
2022-10-15T00:24:33.145Z,20.03
2022-10-15T00:27:02.680Z,17.93
2022-10-15T00:29:30.944Z,17.63
2022-10-15T00:31:59.145Z,18.70
2022-10-15T00:34:27.605Z,19.13
2022-10-15T00:36:55.833Z,18.40
2022-10-15T00:39:24.030Z,18.97
2022-10-15T00:41:52.448Z,18.67
2022-10-15T00:44:39.398Z,19.20
2022-10-15T00:47:14.969Z,22.57
2022-10-15T00:49:44.809Z,22.03
2022-10-15T00:52:14.383Z,20.70
2022-10-15T00:54:44.133Z,18.70
2022-10-15T00:57:13.004Z,18.60
2022-10-15T00:59:43.891Z,19.03
2022-10-15T01:02:14.340Z,21.00
2022-10-15T01:04:42.902Z,20.57
2022-10-15T01:07:11.141Z,18.87
2022-10-15T01:09:39.543Z,19.03
2022-10-15T01:12:10.171Z,19.33
2022-10-15T01:14:41.511Z,22.60
2022-10-15T01:17:13.956Z,21.20
2022-10-15T01:19:53.258Z,25.63
2022-10-15T01:22:23.657Z,22.47
2022-10-15T01:25:01.236Z,22.93
2022-10-15T01:27:40.327Z,22.30
2022-10-15T01:30:26.531Z,22.60
2022-10-15T01:33:21.582Z,22.80
2022-10-15T01:35:53.492Z,24.30
2022-10-15T01:38:27.153Z,22.53
2022-10-15T01:40:57.210Z,21.97
2022-10-15T01:43:28.331Z,22.57
2022-10-15T01:45:59.305Z,21.80
2022-10-15T01:48:28.719Z,22.50
2022-10-15T01:50:59.872Z,20.73
2022-10-15T01:53:28.457Z,19.57
2022-10-15T01:55:58.515Z,20.80
2022-10-15T01:58:27.202Z,21.43
2022-10-15T02:00:56.153Z,20.20
2022-10-15T02:03:24.427Z,21.40
2022-10-15T02:05:54.041Z,22.97
2022-10-15T02:08:26.097Z,23.67
2022-10-15T02:10:57.443Z,23.50
2022-10-15T02:13:26.773Z,25.63
2022-10-15T02:16:00.150Z,27.13
2022-10-15T02:18:31.001Z,26.03
2022-10-15T02:21:00.159Z,25.57
2022-10-15T02:23:33.731Z,27.63
2022-10-15T02:26:02.042Z,27.90
2022-10-15T02:28:31.178Z,29.07
2022-10-15T02:30:59.729Z,27.83
2022-10-15T02:33:29.001Z,29.13
2022-10-15T02:35:57.864Z,28.23
2022-10-15T02:38:27.037Z,30.50
2022-10-15T02:40:56.633Z,26.90
2022-10-15T02:43:24.892Z,27.80
2022-10-15T02:45:53.054Z,27.93
2022-10-15T02:48:21.208Z,26.03
2022-10-15T02:50:49.346Z,28.33
2022-10-15T02:53:17.504Z,27.47
2022-10-15T02:55:46.825Z,27.93
2022-10-15T02:58:16.368Z,26.77
2022-10-15T03:00:44.643Z,27.57
2022-10-15T03:03:13.145Z,28.33
2022-10-15T03:05:41.534Z,30.33
2022-10-15T03:08:09.704Z,29.63
2022-10-15T03:10:37.933Z,29.67
2022-10-15T03:13:06.352Z,27.00
2022-10-15T03:15:35.909Z,30.60
2022-10-15T03:18:04.077Z,30.20
2022-10-15T03:20:32.242Z,29.10
2022-10-15T03:23:00.527Z,30.87
2022-10-15T03:25:28.738Z,30.47
2022-10-15T03:27:56.930Z,29.33
2022-10-15T03:30:25.163Z,30.43
2022-10-15T03:32:54.711Z,30.97
2022-10-15T03:35:22.886Z,29.70
2022-10-15T03:37:51.137Z,32.23
2022-10-15T03:40:19.315Z,30.60
2022-10-15T03:42:51.676Z,30.70
2022-10-15T03:45:20.040Z,29.70
2022-10-15T03:47:48.559Z,30.30
2022-10-15T03:50:18.140Z,31.90
2022-10-15T03:52:46.306Z,27.37
2022-10-15T03:55:14.675Z,27.17
2022-10-15T03:57:43.061Z,27.37
2022-10-15T04:00:11.731Z,27.60
2022-10-15T04:02:39.919Z,26.57
2022-10-15T04:05:08.326Z,28.83
2022-10-15T04:07:37.950Z,26.17
2022-10-15T04:10:06.236Z,25.63
2022-10-15T04:12:34.378Z,25.87
2022-10-15T04:15:02.548Z,27.23
2022-10-15T04:17:30.760Z,26.00
2022-10-15T04:19:59.051Z,28.90
2022-10-15T04:22:27.317Z,27.20
2022-10-15T04:24:56.894Z,27.30
2022-10-15T04:27:25.136Z,27.53
2022-10-15T04:29:53.342Z,27.03
2022-10-15T04:32:21.942Z,27.63
2022-10-15T04:34:51.042Z,26.37
2022-10-15T04:37:19.244Z,26.17
2022-10-15T04:39:47.413Z,27.97
2022-10-15T04:42:16.922Z,25.67
2022-10-15T04:44:45.093Z,27.37
2022-10-15T04:47:13.375Z,28.97
2022-10-15T04:49:41.573Z,26.50
2022-10-15T04:52:10.330Z,27.53
2022-10-15T04:54:38.587Z,27.23
2022-10-15T04:57:06.982Z,27.30
2022-10-15T04:59:36.512Z,28.20
2022-10-15T05:02:04.803Z,29.97
2022-10-15T05:04:33.035Z,30.80
2022-10-15T05:07:01.205Z,29.97
2022-10-15T05:09:29.400Z,29.57
2022-10-15T05:11:57.584Z,31.57
2022-10-15T05:14:25.882Z,29.63
2022-10-15T05:16:55.435Z,29.90
2022-10-15T05:19:23.721Z,30.37
2022-10-15T05:21:51.886Z,28.67
2022-10-15T05:24:20.089Z,29.27
2022-10-15T05:26:48.428Z,29.27
2022-10-15T05:29:16.608Z,29.17
2022-10-15T05:31:44.804Z,28.47
2022-10-15T05:34:14.430Z,28.10
2022-10-15T05:36:42.644Z,28.53
2022-10-15T05:39:12.168Z,29.20
2022-10-15T05:41:40.417Z,27.87
2022-10-15T05:44:08.641Z,29.83
2022-10-15T05:46:36.839Z,29.57
2022-10-15T05:49:05.018Z,29.67
2022-10-15T05:51:34.567Z,28.20
2022-10-15T05:54:02.747Z,29.23
2022-10-15T05:56:30.958Z,29.07
2022-10-15T05:58:59.324Z,29.00
2022-10-15T06:01:27.547Z,29.73
2022-10-15T06:03:55.712Z,28.37
2022-10-15T06:06:25.010Z,28.30
2022-10-15T06:08:55.333Z,27.83
2022-10-15T06:11:23.749Z,27.30
2022-10-15T06:13:51.928Z,29.23
2022-10-15T06:16:23.617Z,29.00
2022-10-15T06:18:53.409Z,30.33
2022-10-15T06:21:21.729Z,30.07
2022-10-15T06:23:49.902Z,29.03
2022-10-15T06:26:19.451Z,29.33
2022-10-15T06:28:47.924Z,30.73
2022-10-15T06:31:16.239Z,32.00
2022-10-15T06:33:44.448Z,31.77
2022-10-15T06:36:13.624Z,32.03
2022-10-15T06:38:44.043Z,29.97
2022-10-15T06:41:12.435Z,35.27
2022-10-15T06:43:42.080Z,33.80
2022-10-15T06:46:10.352Z,35.23
2022-10-15T06:48:38.538Z,35.70
2022-10-15T06:51:06.904Z,35.30
2022-10-15T06:53:35.357Z,36.03
2022-10-15T06:56:04.441Z,35.53
2022-10-15T06:58:32.699Z,36.03
2022-10-15T07:01:05.876Z,34.60
2022-10-15T07:03:34.406Z,36.87
2022-10-15T07:06:04.528Z,36.27
2022-10-15T07:08:32.997Z,37.70
2022-10-15T07:11:02.986Z,42.47
2022-10-15T07:13:31.215Z,45.77
2022-10-15T07:15:59.407Z,45.63
2022-10-15T07:18:28.946Z,47.07
2022-10-15T07:20:58.631Z,47.10
2022-10-15T07:23:27.865Z,48.70
2022-10-15T07:25:56.318Z,47.90
2022-10-15T07:28:24.616Z,48.00
2022-10-15T07:30:53.167Z,49.23
2022-10-15T07:33:21.347Z,51.00
2022-10-15T07:35:50.881Z,50.87
2022-10-15T07:38:19.081Z,50.50
2022-10-15T07:40:47.249Z,50.20
2022-10-15T07:43:15.908Z,49.97
2022-10-15T07:45:45.205Z,50.03
2022-10-15T07:48:13.392Z,52.43
2022-10-15T07:50:42.390Z,49.60
2022-10-15T07:53:12.050Z,50.93
2022-10-15T07:55:40.240Z,50.43
2022-10-15T07:58:08.799Z,48.90
2022-10-15T08:00:36.984Z,50.27
2022-10-15T08:03:05.260Z,49.77
2022-10-15T08:05:33.584Z,51.40
2022-10-15T08:08:01.824Z,50.47
2022-10-15T08:10:31.381Z,51.13
2022-10-15T08:12:59.559Z,51.50
2022-10-15T08:15:27.728Z,51.57
2022-10-15T08:17:55.872Z,51.30
2022-10-15T08:20:24.045Z,51.37
2022-10-15T08:22:52.335Z,50.00
2022-10-15T08:25:20.744Z,50.93
2022-10-15T08:27:50.461Z,48.97
2022-10-15T08:30:18.959Z,49.37
2022-10-15T08:32:47.271Z,48.17
2022-10-15T08:35:15.647Z,45.17
2022-10-15T08:37:43.997Z,46.57
2022-10-15T08:40:14.206Z,45.03
2022-10-15T08:42:43.712Z,43.53
2022-10-15T08:45:15.865Z,43.87
2022-10-15T08:47:47.717Z,44.73
2022-10-15T08:50:21.328Z,41.30
2022-10-15T08:52:51.307Z,41.67
2022-10-15T08:55:21.563Z,38.97
2022-10-15T08:57:53.402Z,38.43
2022-10-15T09:00:24.100Z,39.33
2022-10-15T09:02:59.264Z,35.97
2022-10-15T09:05:31.803Z,35.50
2022-10-15T09:08:03.110Z,34.63
2022-10-15T09:10:36.675Z,32.90
2022-10-15T09:13:08.868Z,32.30
2022-10-15T09:15:48.138Z,32.23
2022-10-15T09:18:19.993Z,29.17
2022-10-15T09:20:48.505Z,31.83
2022-10-15T09:23:19.885Z,29.80
2022-10-15T09:25:51.763Z,30.10
2022-10-15T09:28:22.261Z,29.53
2022-10-15T09:30:54.559Z,29.33
2022-10-15T09:33:28.805Z,29.90
2022-10-15T09:35:58.635Z,28.63
2022-10-15T09:38:29.626Z,28.53
2022-10-15T09:41:03.206Z,27.40
2022-10-15T09:43:35.346Z,26.93
2022-10-15T09:46:05.394Z,26.67
2022-10-15T09:48:35.440Z,25.57
2022-10-15T09:51:06.280Z,23.10
2022-10-15T09:53:41.682Z,22.00
2022-10-15T09:56:12.917Z,22.33
2022-10-15T09:58:44.931Z,19.03
2022-10-15T10:01:20.265Z,18.60
2022-10-15T10:03:52.446Z,16.83
2022-10-15T10:06:20.682Z,17.20
2022-10-15T10:08:51.238Z,16.90
2022-10-15T10:11:20.154Z,15.40
2022-10-15T10:13:52.024Z,15.13
2022-10-15T10:16:22.151Z,16.17
2022-10-15T10:19:04.241Z,16.87
2022-10-15T10:21:33.593Z,17.47
2022-10-15T10:24:20.114Z,17.67
2022-10-15T10:26:48.901Z,17.20
2022-10-15T10:29:33.068Z,16.43
2022-10-15T10:32:11.215Z,17.33
2022-10-15T10:34:39.548Z,16.67
2022-10-15T10:37:10.130Z,16.57
2022-10-15T10:39:38.550Z,17.30
2022-10-15T10:42:07.764Z,17.80
2022-10-15T10:44:36.743Z,17.43
2022-10-15T10:47:17.292Z,16.30
2022-10-15T10:49:46.571Z,14.97
2022-10-15T10:52:21.585Z,14.47
2022-10-15T10:54:50.446Z,13.57
2022-10-15T10:57:23.644Z,12.33
2022-10-15T10:59:53.765Z,12.63
2022-10-15T11:02:23.518Z,11.50
2022-10-15T11:04:51.743Z,10.70
2022-10-15T11:07:24.113Z,9.98
2022-10-15T11:09:56.587Z,9.27
2022-10-15T11:12:35.232Z,8.32
2022-10-15T11:15:17.726Z,7.18
2022-10-15T11:17:49.533Z,7.30
2022-10-15T11:20:30.523Z,6.65
2022-10-15T11:23:13.448Z,7.28
2022-10-15T11:25:45.819Z,7.18
2022-10-15T11:28:21.655Z,5.95
2022-10-15T11:30:52.049Z,6.63
2022-10-15T11:33:32.577Z,6.68
2022-10-15T11:36:07.288Z,6.13
2022-10-15T11:38:40.730Z,6.22
2022-10-15T11:41:25.790Z,5.78
2022-10-15T11:44:00.796Z,5.63
2022-10-15T11:46:29.920Z,5.33
2022-10-15T11:49:06.366Z,5.07
2022-10-15T11:51:39.053Z,3.90
2022-10-15T11:54:11.508Z,3.80
2022-10-15T11:56:41.606Z,3.80
2022-10-15T11:59:17.475Z,3.77
2022-10-15T12:01:47.456Z,4.00
2022-10-15T12:04:20.076Z,3.80
2022-10-15T12:06:51.727Z,3.23
2022-10-15T12:09:22.900Z,3.13
2022-10-15T12:11:53.261Z,3.50
2022-10-15T12:14:25.634Z,3.30
2022-10-15T12:16:58.669Z,3.13
2022-10-15T12:19:30.541Z,3.20
2022-10-15T12:22:06.810Z,2.80
2022-10-15T12:24:56.967Z,2.27
2022-10-15T12:27:28.420Z,2.40
2022-10-15T12:30:11.717Z,2.17
2022-10-15T12:32:41.497Z,2.00
2022-10-15T12:37:51.266Z,2.03
2022-10-15T12:40:27.024Z,2.17
2022-10-15T12:42:57.175Z,2.30
2022-10-15T12:45:26.012Z,2.30
2022-10-15T12:47:56.129Z,2.20
2022-10-15T12:50:26.425Z,2.20
2022-10-15T12:53:04.615Z,2.30
2022-10-15T12:55:34.057Z,2.40
2022-10-15T12:58:03.778Z,2.40
2022-10-15T13:00:39.370Z,2.00
2022-10-15T13:03:11.444Z,1.97
2022-10-15T13:05:41.265Z,2.20
2022-10-15T13:08:14.697Z,1.90
2022-10-15T13:10:47.540Z,1.70
2022-10-15T13:13:17.918Z,1.80
2022-10-15T13:15:54.626Z,2.13
2022-10-15T13:18:25.841Z,2.00
2022-10-15T13:20:56.522Z,2.37
2022-10-15T13:23:31.668Z,2.33
2022-10-15T13:26:13.235Z,2.50
2022-10-15T13:28:42.637Z,2.30
2022-10-15T13:31:15.100Z,2.00
2022-10-15T13:33:44.129Z,2.20
2022-10-15T13:36:20.697Z,2.23
2022-10-15T13:38:54.166Z,2.20
2022-10-15T13:41:26.518Z,2.10
2022-10-15T13:43:58.822Z,2.40
2022-10-15T13:46:28.079Z,2.10
2022-10-15T13:49:00.546Z,2.30
2022-10-15T13:51:34.537Z,2.90
2022-10-15T13:54:04.020Z,2.20
2022-10-15T13:56:33.155Z,2.30
2022-10-15T13:59:02.599Z,1.97
2022-10-15T14:01:31.828Z,2.47
2022-10-15T14:04:00.927Z,3.00
2022-10-15T14:06:30.652Z,2.37
2022-10-15T14:09:01.353Z,2.97
2022-10-15T14:11:30.368Z,2.57
2022-10-15T14:13:59.567Z,3.40
2022-10-15T14:16:30.690Z,2.20
2022-10-15T14:19:00.781Z,2.90
2022-10-15T14:21:32.499Z,3.40
2022-10-15T14:24:06.668Z,3.83
2022-10-15T14:26:39.244Z,3.80
2022-10-15T14:29:08.106Z,3.20
2022-10-15T14:31:40.176Z,3.37
2022-10-15T14:34:23.464Z,3.13
2022-10-15T14:36:51.781Z,2.60
2022-10-15T14:39:29.196Z,2.97
2022-10-15T14:41:58.371Z,2.70
2022-10-15T14:44:26.586Z,2.57
2022-10-15T14:47:01.090Z,2.40
2022-10-15T14:49:30.536Z,2.90
2022-10-15T14:52:03.361Z,2.57
2022-10-15T14:54:41.255Z,2.80
2022-10-15T14:57:17.298Z,2.77
2022-10-15T14:59:45.606Z,2.60
2022-10-15T15:02:16.734Z,2.70
2022-10-15T15:04:46.532Z,2.87
2022-10-15T15:07:15.637Z,2.87
2022-10-15T15:09:45.512Z,2.70
2022-10-15T15:12:18.347Z,2.97
2022-10-15T15:14:46.571Z,5.13
2022-10-15T15:17:16.287Z,2.70
2022-10-15T15:19:44.544Z,2.97
2022-10-15T15:22:13.576Z,2.50
2022-10-15T15:24:42.259Z,2.73
2022-10-15T15:27:19.172Z,2.53
2022-10-15T15:29:49.733Z,2.73
2022-10-15T15:32:20.474Z,2.93
2022-10-15T15:34:49.013Z,3.03
2022-10-15T15:37:18.418Z,2.97
2022-10-15T15:39:46.972Z,2.85
2022-10-15T15:42:17.556Z,3.07
2022-10-15T15:44:46.219Z,2.60
2022-10-15T15:47:14.692Z,2.90
2022-10-15T15:49:43.148Z,2.83
2022-10-15T15:52:14.070Z,2.92
2022-10-15T15:54:42.582Z,2.80
2022-10-15T15:57:10.951Z,3.00
2022-10-15T15:59:40.874Z,2.70
2022-10-15T16:02:09.231Z,2.83
2022-10-15T16:04:37.429Z,2.95
2022-10-15T16:07:06.981Z,3.28
2022-10-15T16:09:38.522Z,3.40
2022-10-15T16:12:06.970Z,3.00
2022-10-15T16:14:35.192Z,2.70
2022-10-15T16:17:11.874Z,3.08
2022-10-15T16:19:40.041Z,3.57
2022-10-15T16:22:08.252Z,3.47
2022-10-15T16:24:36.743Z,7.83
2022-10-15T16:27:04.910Z,5.93
2022-10-15T16:29:33.137Z,4.10
2022-10-15T16:32:01.329Z,3.30
2022-10-15T16:34:31.316Z,3.87
2022-10-15T16:36:59.484Z,3.07
2022-10-15T16:39:27.765Z,3.13
2022-10-15T16:41:56.424Z,2.90
2022-10-15T16:44:24.739Z,2.77
2022-10-15T16:46:52.911Z,2.80
2022-10-15T16:49:21.144Z,2.37
2022-10-15T16:51:50.687Z,2.77
2022-10-15T16:54:18.902Z,3.10
2022-10-15T16:56:50.458Z,2.60
2022-10-15T16:59:21.328Z,2.50
2022-10-15T17:01:49.633Z,2.50
2022-10-15T17:04:17.949Z,1.80
2022-10-15T17:06:46.434Z,2.17
2022-10-15T17:09:16.003Z,2.50
2022-10-15T17:11:46.837Z,2.50
2022-10-15T17:14:16.298Z,2.57
2022-10-15T17:16:45.263Z,2.13
2022-10-15T17:19:17.170Z,2.27
2022-10-15T17:21:47.012Z,2.07
2022-10-15T17:24:17.172Z,2.20
2022-10-15T17:26:46.345Z,1.87
2022-10-15T17:29:16.449Z,2.10
2022-10-15T17:31:44.794Z,1.70
2022-10-15T17:34:13.375Z,1.73
2022-10-15T17:36:47.089Z,1.70
2022-10-15T17:39:18.943Z,1.70
2022-10-15T17:41:47.606Z,1.70
2022-10-15T17:44:15.800Z,2.10
2022-10-15T17:46:44.135Z,2.13
2022-10-15T17:49:15.177Z,2.27
2022-10-15T17:51:43.484Z,1.83
2022-10-15T17:54:11.684Z,2.10
2022-10-15T17:56:41.333Z,2.30
2022-10-15T17:59:10.735Z,2.50
2022-10-15T18:02:01.082Z,2.57
2022-10-15T18:04:29.988Z,2.40
2022-10-15T18:06:58.204Z,2.40
2022-10-15T18:09:26.822Z,2.57
2022-10-15T18:11:56.781Z,2.40
2022-10-15T18:14:25.082Z,2.40
2022-10-15T18:16:53.340Z,2.50
2022-10-15T18:19:21.955Z,2.30
2022-10-15T18:21:50.212Z,2.40
2022-10-15T18:24:21.432Z,2.47
2022-10-15T18:26:50.102Z,1.97
2022-10-15T18:29:19.793Z,2.53
2022-10-15T18:31:51.142Z,3.00
2022-10-15T18:34:21.853Z,2.60
2022-10-15T18:36:50.051Z,2.73
2022-10-15T18:39:18.303Z,2.27
2022-10-15T18:41:46.952Z,2.30
2022-10-15T18:44:16.687Z,2.27
2022-10-15T18:46:46.291Z,2.10
2022-10-15T18:49:15.208Z,2.17
2022-10-15T18:51:43.447Z,2.20
2022-10-15T18:54:11.648Z,2.00
2022-10-15T18:56:39.856Z,1.83
2022-10-15T18:59:08.118Z,2.37
2022-10-15T19:01:37.325Z,1.83
2022-10-15T19:04:08.010Z,2.30
2022-10-15T19:06:37.655Z,1.80
2022-10-15T19:09:06.707Z,1.70
2022-10-15T19:11:35.179Z,1.83
2022-10-15T19:14:03.490Z,2.03
2022-10-15T19:16:32.004Z,2.20
2022-10-15T19:19:00.206Z,2.50
2022-10-15T19:21:29.853Z,2.27
2022-10-15T19:23:58.290Z,2.50
2022-10-15T19:26:26.976Z,2.67
2022-10-15T19:28:55.251Z,2.23
2022-10-15T19:31:25.119Z,2.33
2022-10-15T19:33:53.464Z,2.50
2022-10-15T19:36:22.317Z,3.13
2022-10-15T19:38:51.955Z,2.63
2022-10-15T19:41:20.598Z,5.73
2022-10-15T19:43:48.939Z,4.33
2022-10-15T19:46:17.263Z,2.87
2022-10-15T19:48:45.730Z,3.37
2022-10-15T19:51:13.982Z,2.20
2022-10-15T19:53:42.512Z,1.93
2022-10-15T19:56:12.753Z,2.40
2022-10-15T19:58:41.014Z,3.03
2022-10-15T20:01:09.402Z,3.40
2022-10-15T20:03:38.462Z,2.67
2022-10-15T20:06:07.986Z,1.90
2022-10-15T20:08:39.226Z,2.20
2022-10-15T20:11:07.965Z,2.57
2022-10-15T20:13:37.874Z,3.60
2022-10-15T20:16:07.505Z,3.20
2022-10-15T20:18:35.812Z,2.90
2022-10-15T20:21:08.285Z,3.00
2022-10-15T20:23:36.713Z,2.70
2022-10-15T20:26:06.284Z,2.70
2022-10-15T20:28:37.677Z,2.83
2022-10-15T20:31:06.762Z,2.50
2022-10-15T20:33:35.629Z,2.50
2022-10-15T20:36:04.640Z,2.70
2022-10-15T20:38:32.809Z,3.60
2022-10-15T20:41:01.050Z,4.67
2022-10-15T20:43:29.208Z,3.17
2022-10-15T20:45:58.992Z,3.00
2022-10-15T20:48:28.035Z,2.77
2022-10-15T20:50:56.523Z,2.40
2022-10-15T20:53:25.058Z,2.43
2022-10-15T20:55:53.305Z,2.50
2022-10-15T20:58:21.515Z,2.90
2022-10-15T21:00:49.719Z,2.73
2022-10-15T21:03:19.259Z,2.43
2022-10-15T21:05:47.519Z,2.30
2022-10-15T21:08:15.778Z,2.37
2022-10-15T21:10:43.978Z,2.50
2022-10-15T21:13:12.173Z,2.60
2022-10-15T21:15:40.345Z,2.43
2022-10-15T21:18:08.569Z,2.30
2022-10-15T21:20:38.107Z,2.33
2022-10-15T21:23:06.323Z,1.90
2022-10-15T21:25:34.911Z,2.40
2022-10-15T21:28:03.143Z,2.17
2022-10-15T21:30:31.319Z,2.20
2022-10-15T21:33:02.798Z,3.50
2022-10-15T21:35:30.990Z,3.27
2022-10-15T21:38:00.514Z,2.80
2022-10-15T21:40:28.726Z,2.40
2022-10-15T21:42:56.867Z,2.40
2022-10-15T21:45:25.028Z,2.57
2022-10-15T21:47:53.212Z,2.50
2022-10-15T21:50:21.363Z,2.40
2022-10-15T21:52:49.593Z,2.73
2022-10-15T21:55:19.155Z,2.47
2022-10-15T21:57:47.352Z,4.20
2022-10-15T22:00:18.271Z,2.60
2022-10-15T22:02:50.473Z,2.57
2022-10-15T22:05:18.813Z,2.77
2022-10-15T22:07:47.039Z,2.50
2022-10-15T22:10:15.341Z,2.80
2022-10-15T22:12:44.873Z,2.77
2022-10-15T22:15:13.130Z,2.50
2022-10-15T22:17:41.305Z,2.90
2022-10-15T22:20:10.028Z,2.53
2022-10-15T22:22:38.242Z,2.67
2022-10-15T22:25:06.697Z,2.60
2022-10-15T22:27:34.896Z,2.60
2022-10-15T22:30:04.622Z,2.70
2022-10-15T22:32:32.807Z,2.40
2022-10-15T22:35:01.020Z,2.63
2022-10-15T22:37:29.206Z,2.50
2022-10-15T22:39:57.371Z,2.77
2022-10-15T22:42:25.836Z,3.03
2022-10-15T22:44:54.189Z,2.60
2022-10-15T22:47:23.722Z,2.47
2022-10-15T22:49:51.971Z,2.40
2022-10-15T22:52:20.210Z,2.70
2022-10-15T22:54:48.436Z,2.97
2022-10-15T22:57:16.622Z,2.80
2022-10-15T22:59:44.780Z,3.13
2022-10-15T23:02:13.196Z,2.60
2022-10-15T23:04:42.890Z,2.90
2022-10-15T23:07:11.080Z,2.87
2022-10-15T23:09:39.258Z,2.80
2022-10-15T23:12:07.614Z,2.57
2022-10-15T23:14:35.835Z,2.93
2022-10-15T23:17:04.007Z,2.80
2022-10-15T23:19:32.503Z,2.77
2022-10-15T23:22:03.339Z,2.70
2022-10-15T23:24:31.501Z,3.10
2022-10-15T23:27:00.534Z,3.10
2022-10-15T23:29:28.776Z,3.17
2022-10-15T23:31:58.744Z,3.40
2022-10-15T23:34:27.697Z,3.00
2022-10-15T23:36:56.380Z,2.60
2022-10-15T23:39:27.395Z,3.20
2022-10-15T23:41:56.125Z,2.57
2022-10-15T23:44:26.717Z,3.10
2022-10-15T23:46:55.026Z,3.40
2022-10-15T23:49:23.332Z,3.20
2022-10-15T23:51:51.485Z,3.17
2022-10-15T23:54:20.057Z,3.60
2022-10-15T23:56:49.763Z,3.50
2022-10-15T23:59:18.242Z,3.57
